Time;durP1;ratioP1;P1;durP2;ratioP2;P2;SDS_P1;SDS_P2;PMS_P1;PMS_P2;Temp;Humidity;BMP_temperature;BMP_pressure;BME280_temperature;BME280_humidity;BME280_pressure;Samples;Min_cycle;Max_cycle;Signal;HPM_P1;HPM_P2
2022/10/01 00:00:14;;;;;;;8.75;7.85;;;;;;;10.61;90.98;100235.19;5001966;28;20026;-81
2022/10/01 00:02:39;;;;;;;9.48;8.20;;;;;;;10.64;90.94;100231.47;5001429;28;20040;-82
2022/10/01 00:05:06;;;;;;;8.98;7.47;;;;;;;10.66;91.33;100226.13;5007385;28;20349;-81
2022/10/01 00:07:43;;;;;;;8.38;7.47;;;;;;;10.58;92.09;100217.28;5004333;28;20036;-81
2022/10/01 00:10:10;;;;;;;8.52;7.57;;;;;;;10.62;91.36;100229.03;4998115;28;20041;-81
2022/10/01 00:12:36;;;;;;;9.20;6.80;;;;;;;10.58;92.29;100227.66;5005294;28;20029;-81
2022/10/01 00:15:02;;;;;;;8.13;7.15;;;;;;;10.57;92.10;100231.22;4992429;28;20026;-81
2022/10/01 00:17:28;;;;;;;8.73;7.07;;;;;;;10.58;92.72;100238.03;4999685;28;20053;-80
2022/10/01 00:19:54;;;;;;;10.27;6.97;;;;;;;10.57;92.49;100220.84;5002762;28;20026;-82
2022/10/01 00:22:19;;;;;;;10.43;7.05;;;;;;;10.47;92.59;100188.94;5003927;28;20100;-82
2022/10/01 00:24:46;;;;;;;9.55;7.05;;;;;;;10.50;92.76;100187.84;4988759;28;20066;-81
2022/10/01 00:27:12;;;;;;;10.23;7.50;;;;;;;10.51;92.58;100190.28;5002480;28;20026;-80
2022/10/01 00:29:39;;;;;;;8.15;7.18;;;;;;;10.53;92.77;100187.56;5000259;28;20041;-81
2022/10/01 00:32:05;;;;;;;9.05;7.53;;;;;;;10.48;93.32;100175.00;4997385;28;20482;-81
2022/10/01 00:34:30;;;;;;;8.73;7.10;;;;;;;10.47;92.84;100169.97;5003928;28;20034;-81
2022/10/01 00:36:56;;;;;;;9.05;7.95;;;;;;;10.50;93.75;100178.28;5003390;28;20053;-81
2022/10/01 00:39:22;;;;;;;9.95;7.95;;;;;;;10.44;94.15;100178.84;4997522;28;20504;-82
2022/10/01 00:41:48;;;;;;;8.73;7.43;;;;;;;10.50;93.92;100188.66;5003071;28;20033;-81
2022/10/01 00:44:31;;;;;;;8.50;7.35;;;;;;;10.55;93.80;100191.66;5007580;28;20072;-80
2022/10/01 00:47:03;;;;;;;8.50;6.47;;;;;;;10.42;93.94;100170.38;4998301;28;20108;-81
2022/10/01 00:49:32;;;;;;;8.95;6.03;;;;;;;10.45;94.09;100180.50;5006384;28;20030;-81
2022/10/01 00:52:04;;;;;;;9.38;6.97;;;;;;;10.50;94.00;100188.66;4994595;28;20109;-80
2022/10/01 00:54:36;;;;;;;8.65;7.07;;;;;;;10.45;94.34;100185.66;5001893;28;20064;-81
2022/10/01 00:57:07;;;;;;;8.63;7.32;;;;;;;10.46;95.14;100192.47;4998251;28;20022;-81
2022/10/01 00:59:34;;;;;;;8.95;7.03;;;;;;;10.50;95.33;100178.28;5004214;28;20036;-80
2022/10/01 01:01:59;;;;;;;7.97;7.18;;;;;;;10.46;94.51;100171.75;4993302;28;20026;-82
2022/10/01 01:04:25;;;;;;;8.70;7.68;;;;;;;10.45;95.59;100169.31;5005617;28;20037;-80
2022/10/01 01:06:56;;;;;;;9.35;7.40;;;;;;;10.51;95.50;100169.56;4994643;28;20092;-81
2022/10/01 01:09:29;;;;;;;8.80;7.47;;;;;;;10.43;95.43;100155.63;4990621;28;20030;-81
2022/10/01 01:12:04;;;;;;;8.63;7.10;;;;;;;10.50;96.19;100157.56;4992581;28;20061;-81
2022/10/01 01:14:48;;;;;;;10.45;7.70;;;;;;;10.48;95.83;100135.31;5005127;28;20030;-81
2022/10/01 01:17:22;;;;;;;9.80;7.38;;;;;;;10.49;95.84;100114.41;5002389;28;20502;-81
2022/10/01 01:20:25;;;;;;;9.30;7.15;;;;;;;10.46;96.14;100109.53;4994285;28;20459;-82
2022/10/01 01:23:08;;;;;;;8.90;7.43;;;;;;;10.41;95.67;100101.34;4991481;28;20030;-82
2022/10/01 01:25:46;;;;;;;8.27;6.90;;;;;;;10.45;96.09;100094.94;4992982;28;20026;-82
2022/10/01 01:28:22;;;;;;;7.75;5.78;;;;;;;10.42;96.93;100082.25;5002967;28;20029;-82
2022/10/01 01:30:51;;;;;;;7.53;6.28;;;;;;;10.37;96.38;100079.25;5004899;28;20054;-82
2022/10/01 01:33:21;;;;;;;7.80;7.00;;;;;;;10.31;96.88;100048.72;4995432;28;20033;-82
2022/10/01 01:35:55;;;;;;;7.65;6.85;;;;;;;10.33;96.74;100052.00;4999711;28;20030;-82
2022/10/01 01:38:27;;;;;;;7.78;6.80;;;;;;;10.37;97.56;100053.34;4998797;28;20044;-82
2022/10/01 01:40:57;;;;;;;7.82;5.25;;;;;;;10.33;97.20;100031.28;4997790;28;20032;-82
2022/10/01 01:43:28;;;;;;;6.60;5.47;;;;;;;10.36;96.96;100041.34;5005220;28;20399;-82
2022/10/01 01:45:54;;;;;;;7.20;5.15;;;;;;;10.34;97.57;100038.09;5007194;28;20038;-82
2022/10/01 01:48:22;;;;;;;6.78;5.20;;;;;;;10.29;97.02;100019.53;5009751;28;20038;-82
2022/10/01 01:50:54;;;;;;;7.95;4.63;;;;;;;10.40;96.75;100021.97;5007232;28;20053;-82
2022/10/01 01:53:20;;;;;;;7.93;4.65;;;;;;;10.36;97.61;100021.41;5007845;28;20056;-82
2022/10/01 01:55:48;;;;;;;5.80;4.47;;;;;;;10.38;97.15;100023.88;5008445;28;20021;-82
2022/10/01 01:58:14;;;;;;;5.93;3.73;;;;;;;10.22;97.28;100013.28;4999926;28;20030;-83
2022/10/01 02:00:39;;;;;;;5.80;4.35;;;;;;;10.30;97.48;99992.66;4994493;28;20324;-81
2022/10/01 02:03:08;;;;;;;6.78;4.65;;;;;;;10.34;97.60;99996.63;5001493;28;20072;-83
2022/10/01 02:05:42;;;;;;;5.43;3.53;;;;;;;10.39;97.60;100003.97;5003800;28;20038;-82
2022/10/01 02:08:31;;;;;;;5.35;4.13;;;;;;;10.32;98.00;99985.56;5003426;28;20029;-82
2022/10/01 02:11:11;;;;;;;5.18;3.70;;;;;;;10.34;97.97;99970.69;4991489;28;20490;-82
2022/10/01 02:14:13;;;;;;;4.85;3.45;;;;;;;10.28;98.05;99958.31;5007936;28;20468;-81
2022/10/01 02:17:00;;;;;;;4.72;3.47;;;;;;;10.40;97.84;99975.28;5001385;28;20049;-81
2022/10/01 02:19:32;;;;;;;5.53;3.33;;;;;;;10.40;98.33;99974.47;5010311;28;20034;-82
2022/10/01 02:22:02;;;;;;;4.88;3.50;;;;;;;10.31;99.24;99981.34;5003041;28;20547;-82
2022/10/01 02:24:45;;;;;;;4.60;3.50;;;;;;;10.27;99.38;99951.50;5008501;28;20496;-82
2022/10/01 02:27:29;;;;;;;3.63;2.85;;;;;;;10.32;99.64;99957.03;5001949;28;20026;-82
2022/10/01 02:29:58;;;;;;;3.25;2.85;;;;;;;10.28;99.36;99945.34;4993509;28;20026;-83
2022/10/01 02:32:24;;;;;;;3.60;2.70;;;;;;;10.23;99.25;99950.13;5000479;28;20035;-81
2022/10/01 02:34:52;;;;;;;4.20;3.05;;;;;;;10.25;100.00;99950.81;5003605;28;20091;-81
2022/10/01 02:37:23;;;;;;;4.03;3.00;;;;;;;10.28;99.70;99929.81;4998572;28;20460;-82
2022/10/01 02:39:51;;;;;;;3.83;2.78;;;;;;;10.31;98.97;99939.88;5004421;28;20129;-81
2022/10/01 02:42:19;;;;;;;2.88;2.35;;;;;;;10.33;99.78;99956.91;5006859;28;20045;-81
2022/10/01 02:44:46;;;;;;;4.10;2.38;;;;;;;10.34;99.76;99962.91;5005659;28;20030;-81
2022/10/01 02:47:25;;;;;;;4.22;2.70;;;;;;;10.23;100.00;99943.19;5009317;28;20017;-82
2022/10/01 02:49:52;;;;;;;2.70;2.42;;;;;;;10.19;100.00;99941.00;4996702;28;20045;-81
2022/10/01 02:52:33;;;;;;;3.45;2.60;;;;;;;10.22;100.00;99951.09;5001845;28;20069;-82
2022/10/01 02:55:07;;;;;;;4.63;2.78;;;;;;;10.28;100.00;99955.72;5002770;28;20036;-82
2022/10/01 02:57:34;;;;;;;3.38;2.70;;;;;;;10.31;100.00;99960.59;5007524;28;20030;-82
2022/10/01 03:00:05;;;;;;;3.45;2.42;;;;;;;10.23;100.00;99960.47;5000654;28;20037;-82
2022/10/01 03:02:31;;;;;;;3.53;2.85;;;;;;;10.24;100.00;99949.19;5005327;28;20033;-82
2022/10/01 03:04:58;;;;;;;4.20;3.00;;;;;;;10.24;100.00;99949.19;5002405;28;20066;-82
2022/10/01 03:07:29;;;;;;;3.13;2.35;;;;;;;10.27;100.00;99948.91;4996536;28;20495;-82
2022/10/01 03:09:55;;;;;;;3.67;2.65;;;;;;;10.25;100.00;99945.63;4998223;28;20061;-80
2022/10/01 03:12:22;;;;;;;3.28;2.45;;;;;;;10.29;100.00;99957.34;4993780;28;20093;-81
2022/10/01 03:14:47;;;;;;;3.28;2.42;;;;;;;10.34;100.00;99955.94;5003312;28;20025;-81
2022/10/01 03:17:14;;;;;;;4.20;2.35;;;;;;;10.30;100.00;99948.59;5000762;28;20022;-82
2022/10/01 03:19:39;;;;;;;4.03;2.33;;;;;;;10.29;100.00;99947.78;5002432;28;20033;-81
2022/10/01 03:22:06;;;;;;;2.63;2.03;;;;;;;10.36;100.00;99954.03;5005729;28;20535;-81
2022/10/01 03:24:31;;;;;;;4.10;2.38;;;;;;;10.38;100.00;99961.69;4999825;28;20040;-82
2022/10/01 03:26:57;;;;;;;3.15;2.30;;;;;;;10.35;100.00;99941.22;5000819;28;20464;-81
2022/10/01 03:29:24;;;;;;;2.25;1.95;;;;;;;10.42;100.00;99955.22;4991454;28;20455;-81
2022/10/01 03:31:50;;;;;;;2.63;2.08;;;;;;;10.28;100.00;99925.44;4995087;28;20527;-81
2022/10/01 03:34:15;;;;;;;3.67;2.03;;;;;;;10.38;100.00;99940.94;4989554;28;20023;-81
2022/10/01 03:36:41;;;;;;;5.07;2.03;;;;;;;10.42;100.00;99950.03;5001347;28;20498;-81
2022/10/01 03:39:06;;;;;;;2.90;1.95;;;;;;;10.43;100.00;99949.06;4999675;28;20033;-81
2022/10/01 03:41:32;;;;;;;1.98;1.85;;;;;;;10.41;100.00;99934.63;5000611;28;20026;-81
2022/10/01 03:43:57;;;;;;;2.87;2.10;;;;;;;10.50;100.00;99942.34;4996805;28;20121;-81
2022/10/01 03:46:23;;;;;;;2.55;2.20;;;;;;;10.45;100.00;99930.78;5004325;28;20412;-81
2022/10/01 03:48:49;;;;;;;2.80;2.10;;;;;;;10.46;100.00;99943.59;5000404;28;20411;-81
2022/10/01 03:51:14;;;;;;;2.85;1.80;;;;;;;10.52;100.00;99943.00;4997943;28;20496;-81
2022/10/01 03:53:40;;;;;;;2.00;1.80;;;;;;;10.54;100.00;99951.47;4999112;28;20069;-81
2022/10/01 03:56:05;;;;;;;2.13;1.90;;;;;;;10.51;100.00;99940.59;4997068;28;20018;-81
2022/10/01 03:58:31;;;;;;;3.08;1.92;;;;;;;10.54;100.00;99929.91;5006099;28;20034;-83
2022/10/01 04:00:56;;;;;;;2.85;1.85;;;;;;;10.51;100.00;99925.84;4995690;28;20025;-81
2022/10/01 04:03:22;;;;;;;2.60;1.83;;;;;;;10.61;100.00;99947.34;5007789;28;20072;-81
2022/10/01 04:05:48;;;;;;;2.75;1.85;;;;;;;10.60;100.00;99930.13;5005318;28;20057;-81
2022/10/01 04:08:14;;;;;;;3.60;1.95;;;;;;;10.58;100.00;99932.06;5008060;28;20038;-81
2022/10/01 04:10:40;;;;;;;2.28;2.00;;;;;;;10.63;100.00;99945.41;4991025;28;20046;-81
2022/10/01 04:13:06;;;;;;;3.40;1.73;;;;;;;10.69;100.00;99950.97;4993338;28;20034;-81
2022/10/01 04:15:32;;;;;;;4.18;2.10;;;;;;;10.68;100.00;99946.75;5004971;28;20048;-82
2022/10/01 04:17:59;;;;;;;2.83;2.10;;;;;;;10.66;100.00;99949.47;5003012;28;20416;-83
2022/10/01 04:20:24;;;;;;;2.30;1.90;;;;;;;10.59;100.00;99935.47;5000725;28;20026;-82
2022/10/01 04:22:50;;;;;;;2.25;1.80;;;;;;;10.64;100.00;99947.03;5005184;28;20073;-83
2022/10/01 04:25:16;;;;;;;2.60;1.70;;;;;;;10.66;100.00;99944.28;4993573;28;20058;-81
2022/10/01 04:27:54;;;;;;;2.95;1.98;;;;;;;10.69;100.00;99949.19;4990060;28;20042;-81
2022/10/01 04:30:20;;;;;;;2.87;1.80;;;;;;;10.76;100.00;99962.38;5004479;28;20431;-81
2022/10/01 04:32:45;;;;;;;3.10;2.00;;;;;;;10.76;100.00;99964.97;5003741;28;20299;-81
2022/10/01 04:35:11;;;;;;;2.00;1.80;;;;;;;10.82;100.00;99964.38;4997288;28;20026;-82
2022/10/01 04:37:37;;;;;;;2.83;1.67;;;;;;;10.76;100.00;99949.41;5007983;28;20494;-81
2022/10/01 04:40:02;;;;;;;2.35;1.92;;;;;;;10.80;100.00;99953.34;5005426;28;20666;-81
2022/10/01 04:42:28;;;;;;;4.35;2.00;;;;;;;10.84;100.00;99967.66;5006655;28;20033;-82
2022/10/01 04:44:53;;;;;;;4.00;2.13;;;;;;;10.88;100.00;99963.78;5006568;28;20064;-81
2022/10/01 04:47:18;;;;;;;2.13;1.92;;;;;;;10.86;100.00;99971.72;4990494;28;20030;-81
2022/10/01 04:49:44;;;;;;;3.15;2.33;;;;;;;10.89;100.00;99971.41;5005859;28;20045;-82
2022/10/01 04:52:09;;;;;;;3.75;2.20;;;;;;;10.89;100.00;99975.78;5006576;28;20030;-82
2022/10/01 04:54:34;;;;;;;4.10;2.15;;;;;;;10.95;100.00;99975.19;4993967;28;20022;-82
2022/10/01 04:57:00;;;;;;;2.42;2.20;;;;;;;10.92;100.00;99970.31;5000027;28;20510;-81
2022/10/01 04:59:25;;;;;;;3.65;2.10;;;;;;;10.85;100.00;99969.28;5004363;28;20030;-81
2022/10/01 05:01:51;;;;;;;3.13;2.20;;;;;;;10.96;100.00;99987.22;5002229;28;20037;-82
2022/10/01 05:04:17;;;;;;;3.45;2.30;;;;;;;10.94;100.00;99976.16;4997580;28;20053;-82
2022/10/01 05:06:43;;;;;;;2.90;2.20;;;;;;;10.97;100.00;99978.47;4998131;28;20117;-82
2022/10/01 05:09:08;;;;;;;2.75;2.45;;;;;;;11.00;100.00;99988.53;5007263;28;20438;-82
2022/10/01 05:11:33;;;;;;;3.10;2.53;;;;;;;11.03;100.00;99988.25;4995725;28;20560;-81
2022/10/01 05:13:59;;;;;;;3.78;2.80;;;;;;;11.05;100.00;100001.06;4997423;28;20026;-85
2022/10/01 05:16:25;;;;;;;2.70;2.50;;;;;;;11.07;100.00;99999.97;5010646;28;20120;-81
2022/10/01 05:18:50;;;;;;;3.47;2.70;;;;;;;11.09;100.00;100013.63;5009564;28;20034;-81
2022/10/01 05:21:16;;;;;;;2.67;2.47;;;;;;;11.11;100.00;100006.47;5004235;28;20053;-81
2022/10/01 05:23:41;;;;;;;5.60;3.17;;;;;;;11.11;100.00;100010.84;5007855;28;20037;-81
2022/10/01 05:26:07;;;;;;;4.68;3.40;;;;;;;11.14;100.00;100013.19;5001764;28;20025;-81
2022/10/01 05:28:34;;;;;;;3.50;3.17;;;;;;;11.14;100.00;100016.59;5008926;28;20022;-81
2022/10/01 05:31:00;;;;;;;5.68;3.85;;;;;;;11.15;100.00;100026.00;4999000;28;20052;-81
2022/10/01 05:33:27;;;;;;;5.55;3.90;;;;;;;11.14;100.00;100026.16;5005616;28;20518;-81
2022/10/01 05:35:52;;;;;;;5.10;4.63;;;;;;;11.23;100.00;100034.81;5010072;28;20037;-81
2022/10/01 05:38:17;;;;;;;5.07;4.57;;;;;;;11.21;100.00;100034.16;5007956;28;20037;-83
2022/10/01 05:40:46;;;;;;;6.10;5.40;;;;;;;11.27;100.00;100044.75;5006051;28;20018;-81
2022/10/01 05:43:13;;;;;;;6.13;5.53;;;;;;;11.28;100.00;100048.16;5009110;28;20112;-81
2022/10/01 05:45:38;;;;;;;6.65;5.22;;;;;;;11.30;100.00;100046.25;5006692;28;20138;-81
2022/10/01 05:48:06;;;;;;;6.07;5.47;;;;;;;11.27;100.00;100051.72;4999971;28;20109;-81
2022/10/01 05:50:34;;;;;;;6.75;5.60;;;;;;;11.21;100.00;100047.13;5002002;28;20054;-83
2022/10/01 05:53:01;;;;;;;7.97;6.25;;;;;;;11.16;100.00;100050.97;4999359;28;20040;-81
2022/10/01 05:55:32;;;;;;;6.80;6.15;;;;;;;11.21;100.00;100067.91;5009030;28;20728;-82
2022/10/01 05:58:00;;;;;;;7.38;6.78;;;;;;;11.22;100.00;100064.34;5003106;28;20030;-81
2022/10/01 06:00:29;;;;;;;8.48;7.68;;;;;;;11.26;100.00;100068.28;4994747;28;20036;-80
2022/10/01 06:02:58;;;;;;;9.73;8.93;;;;;;;11.33;100.00;100077.09;5010359;28;20037;-81
2022/10/01 06:05:23;;;;;;;;;;;;;;;11.40;100.00;100072.94;5007400;28;20429;-82
2022/10/01 06:07:50;;;;;;;10.30;9.35;;;;;;;11.30;100.00;100067.03;5008255;28;20488;-81
2022/10/01 06:10:17;;;;;;;10.95;9.95;;;;;;;11.38;100.00;100090.44;5005679;28;20030;-81
2022/10/01 06:12:42;;;;;;;10.25;9.35;;;;;;;11.36;100.00;100085.41;4993594;28;20038;-82
2022/10/01 06:15:09;;;;;;;11.02;10.07;;;;;;;11.42;100.00;100091.78;5004098;28;20048;-81
2022/10/01 06:17:34;;;;;;;12.90;11.75;;;;;;;11.39;100.00;100081.69;5004504;28;20430;-81
2022/10/01 06:20:00;;;;;;;13.13;11.98;;;;;;;11.48;100.00;100088.59;5008734;28;20353;-81
2022/10/01 06:22:25;;;;;;;13.43;11.98;;;;;;;11.45;100.00;100075.91;5005620;28;20139;-81
2022/10/01 06:24:51;;;;;;;12.80;11.70;;;;;;;11.49;100.00;100092.81;4999136;28;20056;-81
2022/10/01 06:27:17;;;;;;;13.00;11.90;;;;;;;11.53;100.00;100111.53;5006831;28;20030;-81
2022/10/01 06:29:43;;;;;;;13.70;12.50;;;;;;;11.54;100.00;100105.38;4991906;28;20061;-81
2022/10/01 06:32:12;;;;;;;14.48;13.27;;;;;;;11.53;100.00;100107.16;4999666;28;20068;-80
2022/10/01 06:34:37;;;;;;;14.68;13.50;;;;;;;11.50;100.00;100099.66;4996544;28;20030;-81
2022/10/01 06:37:02;;;;;;;13.82;12.63;;;;;;;11.50;100.00;100099.66;5008259;28;20353;-80
2022/10/01 06:39:28;;;;;;;14.50;13.30;;;;;;;11.54;100.00;100094.97;5002981;28;20029;-81
2022/10/01 06:41:53;;;;;;;14.50;13.30;;;;;;;11.57;100.00;100100.69;5002731;28;20677;-81
2022/10/01 06:44:19;;;;;;;14.30;12.98;;;;;;;11.51;100.00;100101.28;5008135;28;20586;-82
2022/10/01 06:46:44;;;;;;;14.85;13.45;;;;;;;11.55;100.00;100105.22;5001582;28;20057;-82
2022/10/01 06:49:10;;;;;;;14.07;12.90;;;;;;;11.58;100.00;100097.09;5003289;28;20499;-81
2022/10/01 06:54:20;;;;;;;16.40;15.02;;;;;;;11.61;100.00;100091.63;5001186;28;20475;-83
2022/10/01 06:56:45;;;;;;;16.95;15.45;;;;;;;11.69;100.00;100099.47;5000653;28;20038;-83
2022/10/01 06:59:16;;;;;;;18.30;16.70;;;;;;;11.70;100.00;100103.72;5000832;28;20044;-81
2022/10/01 07:01:41;;;;;;;17.05;15.57;;;;;;;11.76;100.00;100106.69;5005170;28;20041;-81
2022/10/01 07:04:07;;;;;;;17.85;16.38;;;;;;;11.78;100.00;100107.34;4991370;28;20061;-81
2022/10/01 07:06:33;;;;;;;18.73;17.02;;;;;;;11.82;100.00;100104.34;4990648;28;20038;-81
2022/10/01 07:08:59;;;;;;;18.10;16.52;;;;;;;11.86;100.00;100112.63;4996324;28;20121;-82
2022/10/01 07:11:25;;;;;;;19.13;17.52;;;;;;;11.89;100.00;100117.53;5003096;28;20061;-81
2022/10/01 07:13:51;;;;;;;19.92;18.33;;;;;;;11.94;100.00;100117.91;4993136;28;20025;-83
2022/10/01 07:16:17;;;;;;;19.42;17.83;;;;;;;11.94;100.00;100123.09;5001701;28;20034;-81
2022/10/01 07:18:42;;;;;;;19.80;18.20;;;;;;;12.02;100.00;100135.34;5003725;28;20048;-81
2022/10/01 07:21:07;;;;;;;21.40;19.50;;;;;;;12.09;100.00;100137.16;5001892;28;20068;-81
2022/10/01 07:23:33;;;;;;;21.38;19.60;;;;;;;12.16;100.00;100138.22;5005009;28;20483;-81
2022/10/01 07:25:58;;;;;;;23.17;21.17;;;;;;;12.23;100.00;100139.22;5006124;28;20028;-82
2022/10/01 07:28:24;;;;;;;21.85;20.00;;;;;;;12.30;100.00;100139.44;5002971;28;20017;-81
2022/10/01 07:31:05;;;;;;;20.30;18.60;;;;;;;12.39;100.00;100140.31;5004267;28;20038;-81
2022/10/01 07:33:30;;;;;;;21.90;20.15;;;;;;;12.42;100.00;100142.59;4995009;28;20057;-81
2022/10/01 07:35:59;;;;;;;22.13;20.23;;;;;;;12.59;100.00;100159.91;5005262;28;21095;-81
2022/10/01 07:38:24;;;;;;;21.70;19.73;;;;;;;12.55;100.00;100155.16;5002789;28;20109;-81
2022/10/01 07:40:53;;;;;;;20.45;18.85;;;;;;;12.70;100.00;100172.66;4999017;28;20028;-81
2022/10/01 07:43:19;;;;;;;20.30;18.63;;;;;;;12.69;100.00;100170.22;5003159;28;20484;-81
2022/10/01 07:45:48;;;;;;;19.08;17.40;;;;;;;12.75;100.00;100175.63;5003064;28;20105;-83
2022/10/01 07:48:14;;;;;;;19.85;18.02;;;;;;;12.77;100.00;100178.88;5000415;28;20034;-81
2022/10/01 07:50:43;;;;;;;17.77;16.17;;;;;;;12.74;100.00;100178.38;4998061;28;20058;-81
2022/10/01 07:53:10;;;;;;;18.40;16.70;;;;;;;12.76;100.00;100166.84;5006167;28;20030;-79
2022/10/01 07:55:35;;;;;;;17.73;16.08;;;;;;;12.78;100.00;100161.47;5005031;28;20067;-78
2022/10/01 07:58:01;;;;;;;17.65;16.05;;;;;;;12.87;100.00;100188.34;5005466;28;20021;-79
2022/10/01 08:00:29;;;;;;;19.33;17.52;;;;;;;12.89;100.00;100184.63;5001979;28;20053;-81
2022/10/01 08:02:55;;;;;;;19.75;17.98;;;;;;;12.92;100.00;100175.69;4997332;28;20030;-79
2022/10/01 08:05:23;;;;;;;19.02;17.38;;;;;;;12.91;100.00;100184.47;4994826;28;20605;-78
2022/10/01 08:07:52;;;;;;;18.92;17.17;;;;;;;12.91;100.00;100187.09;4998666;28;20029;-79
2022/10/01 08:10:19;;;;;;;18.63;17.00;;;;;;;12.85;100.00;100211.13;5007970;28;20497;-78
2022/10/01 08:12:44;;;;;;;19.00;17.08;;;;;;;12.87;100.00;100215.19;5007963;28;20048;-77
2022/10/01 08:15:14;;;;;;;18.77;16.88;;;;;;;12.86;100.00;100212.75;4996926;28;20480;-78
2022/10/01 08:17:40;;;;;;;18.08;16.45;;;;;;;12.85;100.00;100208.53;5003138;28;20025;-77
2022/10/01 08:20:08;;;;;;;18.50;16.80;;;;;;;12.84;100.00;100204.28;4996354;28;20774;-79
2022/10/01 08:22:34;;;;;;;15.70;14.20;;;;;;;12.77;100.00;100210.09;5006529;28;20062;-78
2022/10/01 08:24:59;;;;;;;15.98;14.27;;;;;;;12.65;100.00;100195.72;4995164;28;20379;-78
2022/10/01 08:27:26;;;;;;;15.77;14.25;;;;;;;12.65;100.00;100200.09;5003821;28;20058;-78
2022/10/01 08:29:52;;;;;;;15.30;13.88;;;;;;;12.65;100.00;100206.13;5007271;28;20495;-78
2022/10/01 08:32:18;;;;;;;15.85;14.25;;;;;;;12.83;100.00;100228.66;5001599;28;20065;-78
2022/10/01 08:34:44;;;;;;;15.00;13.50;;;;;;;12.88;100.00;100226.41;5007033;28;20021;-78
2022/10/01 08:37:09;;;;;;;15.25;13.80;;;;;;;13.01;100.00;100232.00;5000291;28;20036;-80
2022/10/01 08:39:35;;;;;;;15.50;12.23;;;;;;;13.05;100.00;100228.13;5001572;28;20017;-78
2022/10/01 08:42:32;;;;;;;12.32;11.05;;;;;;;13.13;100.00;100230.78;4997895;28;20030;-78
2022/10/01 08:45:01;;;;;;;12.07;10.90;;;;;;;13.18;100.00;100232.91;5001418;28;20033;-78
2022/10/01 08:47:32;;;;;;;11.23;10.07;;;;;;;13.18;100.00;100220.69;5003332;28;20571;-78
2022/10/01 08:50:04;;;;;;;10.93;9.55;;;;;;;13.28;100.00;100234.44;5001841;28;20065;-79
2022/10/01 08:52:35;;;;;;;9.02;6.85;;;;;;;13.31;100.00;100233.34;5006112;28;20036;-77
2022/10/01 08:55:19;;;;;;;7.95;6.10;;;;;;;13.44;100.00;100244.13;5000579;28;20302;-80
2022/10/01 08:57:50;;;;;;;7.60;5.97;;;;;;;13.38;100.00;100228.31;4998394;28;20030;-79
2022/10/01 09:00:18;;;;;;;7.40;5.05;;;;;;;13.46;100.00;100251.75;5000295;28;20528;-79
2022/10/01 09:02:45;;;;;;;8.10;4.85;;;;;;;13.48;100.00;100250.66;4997832;28;20486;-81
2022/10/01 09:06:02;;;;;;;8.73;5.28;;;;;;;13.61;100.00;100255.41;5004444;28;20105;-78
2022/10/01 09:09:02;;;;;;;8.38;5.53;;;;;;;13.81;100.00;100261.94;4985768;28;20407;-78
2022/10/01 09:12:02;;;;;;;7.05;4.70;;;;;;;13.85;100.00;100261.66;5007986;28;20135;-79
2022/10/01 09:14:50;;;;;;;8.05;4.32;;;;;;;13.88;100.00;100271.75;4995869;28;20403;-79
2022/10/01 09:17:24;;;;;;;7.68;3.70;;;;;;;13.94;100.00;100281.56;5001377;28;20543;-79
2022/10/01 09:20:11;;;;;;;12.32;4.80;;;;;;;13.88;100.00;100267.38;5005356;28;20042;-77
2022/10/01 09:22:40;;;;;;;9.07;4.00;;;;;;;13.77;100.00;100255.44;4994573;28;20793;-80
2022/10/01 09:25:15;;;;;;;8.27;4.50;;;;;;;13.93;100.00;100285.94;5001625;28;20030;-77
2022/10/01 09:27:44;;;;;;;9.18;3.85;;;;;;;13.96;100.00;100290.03;5000751;28;20666;-78
2022/10/01 09:30:17;;;;;;;8.85;3.92;;;;;;;13.85;100.00;100277.28;5001180;28;20030;-77
2022/10/01 09:32:57;;;;;;;9.85;3.75;;;;;;;13.91;100.00;100298.31;4996272;28;20038;-77
2022/10/01 09:35:37;;;;;;;10.15;4.43;;;;;;;13.88;100.00;100295.19;5005086;28;20533;-77
2022/10/01 09:38:16;;;;;;;9.48;4.40;;;;;;;13.82;100.00;100292.28;5002682;28;20042;-79
2022/10/01 09:40:53;;;;;;;9.20;4.03;;;;;;;13.75;100.00;100254.78;5005737;28;20137;-77
2022/10/01 09:43:22;;;;;;;11.18;5.22;;;;;;;14.16;100.00;100275.69;5003292;28;20034;-80
2022/10/01 09:45:49;;;;;;;11.80;5.88;;;;;;;14.22;100.00;100277.69;5003978;28;20547;-77
2022/10/01 09:48:26;;;;;;;13.18;4.88;;;;;;;14.23;100.00;100286.31;4999357;28;20478;-79
2022/10/01 09:51:13;;;;;;;12.70;4.68;;;;;;;14.25;100.00;100285.16;4996447;28;20054;-78
2022/10/01 09:54:12;;;;;;;12.07;4.05;;;;;;;14.27;100.00;100282.38;5006209;28;20151;-84
2022/10/01 09:56:51;;;;;;;11.15;2.60;;;;;;;14.04;100.00;100313.50;5003551;28;20137;-85
2022/10/01 09:59:34;;;;;;;9.38;2.35;;;;;;;13.87;99.66;100298.78;4993469;28;20049;-86
2022/10/01 10:02:02;;;;;;;7.35;1.88;;;;;;;13.76;98.78;100318.97;4991211;28;20443;-83
2022/10/01 10:04:28;;;;;;;;;;;;;;;13.96;100.00;100321.31;5004037;28;20478;-85
2022/10/01 10:07:03;;;;;;;4.60;1.25;;;;;;;13.41;96.31;100316.53;5000609;28;19917;-83
2022/10/01 10:09:32;;;;;;;6.10;1.42;;;;;;;13.18;95.36;100305.81;5003307;28;20026;-81
2022/10/01 10:11:59;;;;;;;5.90;1.42;;;;;;;13.20;96.17;100320.34;5003983;28;20371;-83
2022/10/01 10:14:31;;;;;;;7.57;1.90;;;;;;;13.10;96.47;100324.00;5004832;28;20431;-83
2022/10/01 10:16:57;;;;;;;10.15;2.10;;;;;;;13.01;97.40;100307.50;5003836;28;20029;-83
2022/10/01 10:19:26;;;;;;;8.75;2.00;;;;;;;13.04;97.67;100317.63;5007516;28;20116;-83
2022/10/01 10:22:08;;;;;;;6.15;1.60;;;;;;;13.09;98.06;100325.78;5000124;28;20117;-82
2022/10/01 10:24:34;;;;;;;9.93;2.08;;;;;;;13.03;98.81;100339.44;5004955;28;20061;-84
2022/10/01 10:27:03;;;;;;;7.10;1.80;;;;;;;13.12;99.45;100338.50;5001727;28;20026;-82
2022/10/01 10:29:29;;;;;;;;;;;;;;;13.36;99.04;100344.84;5007682;28;20033;-82
2022/10/01 10:31:56;;;;;;;9.10;2.35;;;;;;;13.17;98.16;100346.66;4998397;28;19924;-82
2022/10/01 10:34:24;;;;;;;10.15;2.45;;;;;;;13.24;98.86;100358.13;5005013;28;20068;-83
2022/10/01 10:36:55;;;;;;;;;;;;;;;13.39;98.43;100350.56;5006864;28;20034;-83
2022/10/01 10:39:28;;;;;;;10.25;2.78;;;;;;;13.26;98.79;100360.59;5005839;28;19947;-83
2022/10/01 10:41:54;;;;;;;12.10;2.60;;;;;;;13.23;98.79;100361.69;5008391;28;20034;-84
2022/10/01 10:44:23;;;;;;;11.93;2.95;;;;;;;13.21;98.11;100353.25;5008509;28;20033;-83
2022/10/01 10:46:51;;;;;;;10.68;2.80;;;;;;;13.24;98.06;100378.13;4992272;28;20490;-83
2022/10/01 10:49:28;;;;;;;11.45;2.55;;;;;;;13.27;97.87;100373.47;5003601;28;20026;-82
2022/10/01 10:51:55;;;;;;;12.73;2.90;;;;;;;13.48;100.00;100380.91;4992394;28;20045;-83
2022/10/01 10:54:37;;;;;;;14.23;3.10;;;;;;;13.66;100.00;100387.84;4993404;28;20041;-82
2022/10/01 10:57:22;;;;;;;10.55;2.70;;;;;;;13.82;98.86;100395.72;5002322;28;20460;-82
2022/10/01 11:00:07;;;;;;;11.80;3.05;;;;;;;13.90;94.52;100395.75;4998631;28;20038;-82
2022/10/01 11:02:32;;;;;;;12.75;2.78;;;;;;;13.98;94.06;100397.56;4993924;28;20037;-84
2022/10/01 11:05:03;;;;;;;11.48;2.33;;;;;;;14.12;94.45;100410.03;5008797;28;20053;-83
2022/10/01 11:07:32;;;;;;;12.15;2.80;;;;;;;14.35;96.27;100415.47;5005983;28;20037;-84
2022/10/01 11:10:35;;;;;;;11.38;2.42;;;;;;;14.41;93.25;100412.22;5007898;28;20080;-83
2022/10/01 11:13:06;;;;;;;13.55;2.85;;;;;;;14.59;92.79;100427.75;4999784;28;20070;-83
2022/10/01 11:16:04;;;;;;;9.95;2.53;;;;;;;14.62;90.75;100427.44;4997508;28;20026;-83
2022/10/01 11:19:00;;;;;;;13.15;2.88;;;;;;;14.75;92.13;100427.78;5004374;28;20030;-83
2022/10/01 11:21:34;;;;;;;13.60;2.50;;;;;;;14.85;90.77;100438.91;5003432;28;20339;-83
2022/10/01 11:24:47;;;;;;;10.57;2.40;;;;;;;15.05;92.32;100449.00;5001336;28;20068;-82
2022/10/01 11:27:43;;;;;;;11.57;2.85;;;;;;;14.95;89.93;100448.34;4937955;29;20035;-85
2022/10/01 11:30:25;;;;;;;13.00;2.72;;;;;;;14.87;89.72;100452.59;4947957;29;20042;-85
2022/10/01 11:33:05;;;;;;;10.30;2.30;;;;;;;14.70;87.03;100450.94;4931018;29;20066;-82
2022/10/01 11:35:49;;;;;;;15.23;2.50;;;;;;;14.66;88.36;100465.28;4921578;29;20311;-83